Overview Statistics Trail Chart Weather Telemetry Raw packets
 

This is the latest recevied weather packets stored in our database for station/object Seibranz. If no packets are shown the sender has not sent any weather packets the latest 10 day(s).

<< 6 7 8 9 10 11 12 >>
Time Temp. Humidity Pressure Rain* Wind** Luminosity Snow
1788220931 12.22° C 84% 1020.3 hPa 0 mm - - -
1788219131 11.67° C 83% 1020.2 hPa 0 mm - - -
1788217331 10.56° C 87% 1020 hPa 0 mm - - -
1788215533 10.56° C 87% 1020.1 hPa 0 mm - - -
1788211930 10.56° C 86% 1019.9 hPa 5.08 mm - - -
1788210131 12.78° C 78% 1019.7 hPa 5.08 mm - - -
1788208331 14.44° C 71% 1019.6 hPa 5.08 mm - - -
1788206530 16.11° C 64% 1019.6 hPa 5.08 mm - - -
1788204730 16.67° C 63% 1019.3 hPa 5.08 mm - - -
1788202931 17.22° C 62% 1018.7 hPa 5.08 mm - - -
1788201131 17.78° C 63% 1017.8 hPa 5.08 mm - - -
1788199330 17.78° C 67% 1017.2 hPa 5.08 mm - - -
1788197531 18.89° C 63% 1016.8 hPa 5.08 mm - - -
1788195731 20° C 59% 1016.5 hPa 5.08 mm - - -
1788193930 20.56° C 57% 1016.4 hPa 5.08 mm - - -
1788192131 20.56° C 54% 1016.1 hPa 5.08 mm - - -
1788190331 21.11° C 54% 1016 hPa 5.08 mm - - -
1788188531 21.67° C 55% 1016.1 hPa 5.08 mm - - -
1788186730 21.67° C 55% 1016.1 hPa 5.08 mm - - -
1788184931 21.11° C 54% 1016.3 hPa 5.08 mm - - -
1788183131 21.11° C 60% 1016.2 hPa 5.08 mm - - -
1788181331 21.11° C 57% 1016.4 hPa 5.08 mm - - -
1788179535 20.56° C 59% 1016.5 hPa 5.08 mm - - -
1788177731 20° C 59% 1016.6 hPa 5.08 mm - - -
1788175931 20° C 67% 1016.6 hPa 5.08 mm - - -

* Rain since midnight (hover to see other rain measurements)
** Current wind speed in m/s (hover to see current wind gust speed)